sensor_id;sensor_type;location;lat;lon;timestamp;pressure;altitude;pressure_sealevel;temperature;humidity
16094;BME280;8151;47.824;12.092;2023-01-28T00:00:01;96598.94;;;0.54;82.35
16094;BME280;8151;47.824;12.092;2023-01-28T00:02:30;96605.97;;;0.52;82.21
16094;BME280;8151;47.824;12.092;2023-01-28T00:05:00;96602.47;;;0.53;82.36
16094;BME280;8151;47.824;12.092;2023-01-28T00:07:28;96599.84;;;0.53;82.46
16094;BME280;8151;47.824;12.092;2023-01-28T00:09:57;96604.16;;;0.54;82.47
16094;BME280;8151;47.824;12.092;2023-01-28T00:12:25;96607.66;;;0.53;82.18
16094;BME280;8151;47.824;12.092;2023-01-28T00:14:55;96601.63;;;0.53;82.21
16094;BME280;8151;47.824;12.092;2023-01-28T00:17:24;96601.63;;;0.53;82.47
16094;BME280;8151;47.824;12.092;2023-01-28T00:19:53;96605.78;;;0.55;82.46
16094;BME280;8151;47.824;12.092;2023-01-28T00:22:22;96609.53;;;0.51;81.99
16094;BME280;8151;47.824;12.092;2023-01-28T00:24:51;96608.72;;;0.51;82.44
16094;BME280;8151;47.824;12.092;2023-01-28T00:27:19;96606.09;;;0.51;82.38
16094;BME280;8151;47.824;12.092;2023-01-28T00:29:48;96607.75;;;0.52;82.64
16094;BME280;8151;47.824;12.092;2023-01-28T00:32:16;96613.06;;;0.50;82.27
16094;BME280;8151;47.824;12.092;2023-01-28T00:34:45;96608.81;;;0.49;82.66
16094;BME280;8151;47.824;12.092;2023-01-28T00:37:13;96608.81;;;0.49;82.66
16094;BME280;8151;47.824;12.092;2023-01-28T00:39:43;96607.97;;;0.49;82.53
16094;BME280;8151;47.824;12.092;2023-01-28T00:42:11;96614.66;;;0.53;82.31
16094;BME280;8151;47.824;12.092;2023-01-28T00:44:40;96609.53;;;0.51;82.50
16094;BME280;8151;47.824;12.092;2023-01-28T00:47:08;96610.28;;;0.53;82.53
16094;BME280;8151;47.824;12.092;2023-01-28T00:49:37;96610.19;;;0.55;82.70
16094;BME280;8151;47.824;12.092;2023-01-28T00:52:05;96612.13;;;0.51;82.60
16094;BME280;8151;47.824;12.092;2023-01-28T00:54:34;96608.06;;;0.47;82.71
16094;BME280;8151;47.824;12.092;2023-01-28T00:57:05;96614.31;;;0.45;82.51
16094;BME280;8151;47.824;12.092;2023-01-28T00:59:34;96609.00;;;0.46;82.75
16094;BME280;8151;47.824;12.092;2023-01-28T01:02:02;96606.94;;;0.51;82.91
16094;BME280;8151;47.824;12.092;2023-01-28T01:04:39;96609.63;;;0.50;82.42
16094;BME280;8151;47.824;12.092;2023-01-28T01:07:07;96619.41;;;0.46;82.70
16094;BME280;8151;47.824;12.092;2023-01-28T01:09:36;96612.47;;;0.47;82.99
16094;BME280;8151;47.824;12.092;2023-01-28T01:12:06;96607.25;;;0.47;82.89
16094;BME280;8151;47.824;12.092;2023-01-28T01:14:35;96616.94;;;0.45;83.13
16094;BME280;8151;47.824;12.092;2023-01-28T01:17:03;96612.56;;;0.45;82.99
16094;BME280;8151;47.824;12.092;2023-01-28T01:19:31;96612.94;;;0.39;82.67
16094;BME280;8151;47.824;12.092;2023-01-28T01:22:00;96605.50;;;0.33;83.23
16094;BME280;8151;47.824;12.092;2023-01-28T01:24:28;96611.75;;;0.30;83.11
16094;BME280;8151;47.824;12.092;2023-01-28T01:27:00;96600.53;;;0.30;83.01
16094;BME280;8151;47.824;12.092;2023-01-28T01:29:30;96610.94;;;0.30;83.02
16094;BME280;8151;47.824;12.092;2023-01-28T01:31:59;96608.25;;;0.31;83.38
16094;BME280;8151;47.824;12.092;2023-01-28T01:34:28;96603.66;;;0.35;83.32
16094;BME280;8151;47.824;12.092;2023-01-28T01:36:57;96613.88;;;0.38;83.10
16094;BME280;8151;47.824;12.092;2023-01-28T01:39:26;96617.13;;;0.42;83.07
16094;BME280;8151;47.824;12.092;2023-01-28T01:41:54;96612.63;;;0.44;83.11
16094;BME280;8151;47.824;12.092;2023-01-28T01:44:58;96620.13;;;0.48;83.26
16094;BME280;8151;47.824;12.092;2023-01-28T01:47:37;96626.06;;;0.50;82.61
16094;BME280;8151;47.824;12.092;2023-01-28T01:50:14;96626.63;;;0.55;82.73
16094;BME280;8151;47.824;12.092;2023-01-28T01:52:44;96628.31;;;0.56;82.65
16094;BME280;8151;47.824;12.092;2023-01-28T01:55:18;96624.75;;;0.57;82.92
16094;BME280;8151;47.824;12.092;2023-01-28T01:57:54;96636.00;;;0.58;82.89
16094;BME280;8151;47.824;12.092;2023-01-28T02:00:26;96624.03;;;0.55;82.71
16094;BME280;8151;47.824;12.092;2023-01-28T02:02:55;96627.34;;;0.57;82.79
16094;BME280;8151;47.824;12.092;2023-01-28T02:05:25;96628.09;;;0.59;82.64
16094;BME280;8151;47.824;12.092;2023-01-28T02:07:56;96629.78;;;0.61;82.72
16094;BME280;8151;47.824;12.092;2023-01-28T02:10:48;96629.78;;;0.61;82.94
16094;BME280;8151;47.824;12.092;2023-01-28T02:13:18;96625.50;;;0.59;82.97
16094;BME280;8151;47.824;12.092;2023-01-28T02:15:50;96631.44;;;0.62;82.62
16094;BME280;8151;47.824;12.092;2023-01-28T02:18:18;96635.50;;;0.66;82.75
16094;BME280;8151;47.824;12.092;2023-01-28T02:21:14;96628.63;;;0.65;82.62
16094;BME280;8151;47.824;12.092;2023-01-28T02:24:07;96633.84;;;0.65;82.76
16094;BME280;8151;47.824;12.092;2023-01-28T02:27:09;96623.63;;;0.62;82.59
16094;BME280;8151;47.824;12.092;2023-01-28T02:29:48;96627.06;;;0.62;82.58
16094;BME280;8151;47.824;12.092;2023-01-28T02:32:21;96634.97;;;0.61;82.35
16094;BME280;8151;47.824;12.092;2023-01-28T02:34:55;96640.28;;;0.59;82.61
16094;BME280;8151;47.824;12.092;2023-01-28T02:37:30;96641.84;;;0.62;82.51
16094;BME280;8151;47.824;12.092;2023-01-28T02:40:05;96640.19;;;0.61;82.57
16094;BME280;8151;47.824;12.092;2023-01-28T02:42:38;96643.72;;;0.59;82.49
16094;BME280;8151;47.824;12.092;2023-01-28T02:45:18;96637.69;;;0.59;82.57
16094;BME280;8151;47.824;12.092;2023-01-28T02:47:47;96638.59;;;0.58;82.83
16094;BME280;8151;47.824;12.092;2023-01-28T02:50:30;96637.59;;;0.61;82.84
16094;BME280;8151;47.824;12.092;2023-01-28T02:53:14;96637.38;;;0.64;82.35
16094;BME280;8151;47.824;12.092;2023-01-28T02:56:06;96640.91;;;0.63;82.49
16094;BME280;8151;47.824;12.092;2023-01-28T02:58:44;96635.81;;;0.61;82.66
16094;BME280;8151;47.824;12.092;2023-01-28T03:01:23;96641.84;;;0.62;82.26
16094;BME280;8151;47.824;12.092;2023-01-28T03:03:57;96637.69;;;0.59;82.58
16094;BME280;8151;47.824;12.092;2023-01-28T03:06:30;96634.34;;;0.57;82.66
16094;BME280;8151;47.824;12.092;2023-01-28T03:09:04;96633.59;;;0.55;82.54
16094;BME280;8151;47.824;12.092;2023-01-28T03:11:54;96643.06;;;0.56;82.51
16094;BME280;8151;47.824;12.092;2023-01-28T03:14:42;96645.81;;;0.54;82.33
16094;BME280;8151;47.824;12.092;2023-01-28T03:17:36;96647.63;;;0.52;82.55
16094;BME280;8151;47.824;12.092;2023-01-28T03:20:27;96647.63;;;0.52;82.34
16094;BME280;8151;47.824;12.092;2023-01-28T03:23:17;96650.56;;;0.48;82.25
16094;BME280;8151;47.824;12.092;2023-01-28T03:26:08;96650.78;;;0.45;82.47
16094;BME280;8151;47.824;12.092;2023-01-28T03:28:59;96652.50;;;0.44;82.29
16094;BME280;8151;47.824;12.092;2023-01-28T03:31:49;96660.31;;;0.44;82.55
16094;BME280;8151;47.824;12.092;2023-01-28T03:34:37;96656.88;;;0.44;82.18
16094;BME280;8151;47.824;12.092;2023-01-28T03:37:24;96658.66;;;0.43;82.14
16094;BME280;8151;47.824;12.092;2023-01-28T03:39:54;96661.38;;;0.42;82.35
16094;BME280;8151;47.824;12.092;2023-01-28T03:42:24;96664.06;;;0.40;82.09
16094;BME280;8151;47.824;12.092;2023-01-28T03:44:52;96663.31;;;0.38;82.43
16094;BME280;8151;47.824;12.092;2023-01-28T03:47:21;96673.56;;;0.41;82.49
16094;BME280;8151;47.824;12.092;2023-01-28T03:49:52;96671.69;;;0.43;82.53
16094;BME280;8151;47.824;12.092;2023-01-28T03:52:23;96678.53;;;0.44;82.23
16094;BME280;8151;47.824;12.092;2023-01-28T03:54:52;96675.94;;;0.44;81.98
16094;BME280;8151;47.824;12.092;2023-01-28T03:57:22;96669.91;;;0.44;82.34
16094;BME280;8151;47.824;12.092;2023-01-28T03:59:51;96670.66;;;0.46;81.99
16094;BME280;8151;47.824;12.092;2023-01-28T04:02:21;96671.88;;;0.40;82.10
16094;BME280;8151;47.824;12.092;2023-01-28T04:04:51;96672.81;;;0.39;82.38
16094;BME280;8151;47.824;12.092;2023-01-28T04:07:19;96674.69;;;0.37;82.47
16094;BME280;8151;47.824;12.092;2023-01-28T04:09:48;96677.28;;;0.37;82.34
16094;BME280;8151;47.824;12.092;2023-01-28T04:12:16;96679.88;;;0.37;82.56
16094;BME280;8151;47.824;12.092;2023-01-28T04:14:45;96676.34;;;0.38;82.43
16094;BME280;8151;47.824;12.092;2023-01-28T04:17:13;96679.88;;;0.37;82.46
16094;BME280;8151;47.824;12.092;2023-01-28T04:19:42;96685.09;;;0.37;82.59
16094;BME280;8151;47.824;12.092;2023-01-28T04:22:12;96677.16;;;0.38;82.33
16094;BME280;8151;47.824;12.092;2023-01-28T04:24:40;96681.53;;;0.38;82.33
16094;BME280;8151;47.824;12.092;2023-01-28T04:27:09;96679.69;;;0.40;82.39
16094;BME280;8151;47.824;12.092;2023-01-28T04:29:37;96684.78;;;0.42;82.65
16094;BME280;8151;47.824;12.092;2023-01-28T04:32:06;96682.09;;;0.43;82.39
16094;BME280;8151;47.824;12.092;2023-01-28T04:34:37;96689.81;;;0.45;82.39
16094;BME280;8151;47.824;12.092;2023-01-28T04:37:06;96692.28;;;0.46;82.23
16094;BME280;8151;47.824;12.092;2023-01-28T04:39:35;96691.38;;;0.47;81.93
16094;BME280;8151;47.824;12.092;2023-01-28T04:42:04;96698.25;;;0.48;82.29
16094;BME280;8151;47.824;12.092;2023-01-28T04:44:32;96700.00;;;0.48;82.04
16094;BME280;8151;47.824;12.092;2023-01-28T04:47:01;96704.56;;;0.44;82.24
16094;BME280;8151;47.824;12.092;2023-01-28T04:49:29;96704.66;;;0.43;82.07
16094;BME280;8151;47.824;12.092;2023-01-28T04:51:58;96708.13;;;0.43;81.96
16094;BME280;8151;47.824;12.092;2023-01-28T04:54:27;96713.34;;;0.43;81.97
16094;BME280;8151;47.824;12.092;2023-01-28T04:56:57;96713.34;;;0.43;82.07
16094;BME280;8151;47.824;12.092;2023-01-28T04:59:25;96708.03;;;0.45;82.16
16094;BME280;8151;47.824;12.092;2023-01-28T05:01:53;96714.91;;;0.46;82.39
16094;BME280;8151;47.824;12.092;2023-01-28T05:04:22;96713.03;;;0.48;82.02
16094;BME280;8151;47.824;12.092;2023-01-28T05:06:51;96713.84;;;0.48;82.16
16094;BME280;8151;47.824;12.092;2023-01-28T05:09:19;96716.47;;;0.48;81.94
16094;BME280;8151;47.824;12.092;2023-01-28T05:11:48;96723.34;;;0.49;82.15
16094;BME280;8151;47.824;12.092;2023-01-28T05:14:18;96720.75;;;0.49;82.37
16094;BME280;8151;47.824;12.092;2023-01-28T05:16:46;96724.28;;;0.48;82.31
16094;BME280;8151;47.824;12.092;2023-01-28T05:19:14;96721.78;;;0.47;82.21
16094;BME280;8151;47.824;12.092;2023-01-28T05:21:43;96718.44;;;0.45;82.09
16094;BME280;8151;47.824;12.092;2023-01-28T05:24:11;96726.34;;;0.43;82.22
16094;BME280;8151;47.824;12.092;2023-01-28T05:26:40;96725.50;;;0.43;82.32
16094;BME280;8151;47.824;12.092;2023-01-28T05:29:09;96731.56;;;0.43;82.19
16094;BME280;8151;47.824;12.092;2023-01-28T05:31:39;96731.47;;;0.45;82.37
16094;BME280;8151;47.824;12.092;2023-01-28T05:34:07;96729.59;;;0.47;82.07
16094;BME280;8151;47.824;12.092;2023-01-28T05:36:35;96731.34;;;0.46;82.24
16094;BME280;8151;47.824;12.092;2023-01-28T05:39:09;96732.28;;;0.45;82.21
16094;BME280;8151;47.824;12.092;2023-01-28T05:41:38;96733.22;;;0.44;82.37
16094;BME280;8151;47.824;12.092;2023-01-28T05:44:06;96738.41;;;0.44;82.55
16094;BME280;8151;47.824;12.092;2023-01-28T05:46:35;96741.75;;;0.46;82.23
16094;BME280;8151;47.824;12.092;2023-01-28T05:49:04;96742.50;;;0.48;82.27
16094;BME280;8151;47.824;12.092;2023-01-28T05:51:35;96747.91;;;0.45;82.29
16094;BME280;8151;47.824;12.092;2023-01-28T05:54:05;96754.91;;;0.45;82.39
16094;BME280;8151;47.824;12.092;2023-01-28T05:56:34;96757.38;;;0.46;82.43
16094;BME280;8151;47.824;12.092;2023-01-28T05:59:03;96757.38;;;0.46;82.20
16094;BME280;8151;47.824;12.092;2023-01-28T06:01:31;96761.94;;;0.43;82.38
16094;BME280;8151;47.824;12.092;2023-01-28T06:04:00;96762.78;;;0.43;82.33
16094;BME280;8151;47.824;12.092;2023-01-28T06:06:30;96766.31;;;0.42;82.19
16094;BME280;8151;47.824;12.092;2023-01-28T06:08:58;96768.00;;;0.43;82.18
16094;BME280;8151;47.824;12.092;2023-01-28T06:11:27;96774.88;;;0.44;82.65
16094;BME280;8151;47.824;12.092;2023-01-28T06:13:55;96775.72;;;0.45;82.39
16094;BME280;8151;47.824;12.092;2023-01-28T06:16:23;96772.25;;;0.44;82.46
16094;BME280;8151;47.824;12.092;2023-01-28T06:18:52;96773.94;;;0.45;82.67
16094;BME280;8151;47.824;12.092;2023-01-28T06:21:20;96773.94;;;0.45;82.45
16094;BME280;8151;47.824;12.092;2023-01-28T06:23:50;96769.56;;;0.46;82.64
16094;BME280;8151;47.824;12.092;2023-01-28T06:26:19;96773.94;;;0.45;82.83
16094;BME280;8151;47.824;12.092;2023-01-28T06:28:47;96778.19;;;0.46;82.34
16094;BME280;8151;47.824;12.092;2023-01-28T06:31:15;96785.28;;;0.44;82.40
16094;BME280;8151;47.824;12.092;2023-01-28T06:33:44;96785.28;;;0.44;82.72
16094;BME280;8151;47.824;12.092;2023-01-28T06:36:13;96793.81;;;0.46;82.38
16094;BME280;8151;47.824;12.092;2023-01-28T06:38:41;96799.03;;;0.46;82.47
16094;BME280;8151;47.824;12.092;2023-01-28T06:41:11;96793.00;;;0.46;82.66
16094;BME280;8151;47.824;12.092;2023-01-28T06:43:39;96798.13;;;0.47;82.31
16094;BME280;8151;47.824;12.092;2023-01-28T06:46:08;96793.81;;;0.46;82.64
16094;BME280;8151;47.824;12.092;2023-01-28T06:48:36;96797.28;;;0.47;82.53
16094;BME280;8151;47.824;12.092;2023-01-28T06:51:05;96799.03;;;0.46;82.82
16094;BME280;8151;47.824;12.092;2023-01-28T06:53:33;96804.34;;;0.45;82.88
16094;BME280;8151;47.824;12.092;2023-01-28T06:56:02;96801.75;;;0.45;82.48
16094;BME280;8151;47.824;12.092;2023-01-28T06:58:32;96804.16;;;0.48;82.42
16094;BME280;8151;47.824;12.092;2023-01-28T07:01:01;96803.97;;;0.51;82.33
16094;BME280;8151;47.824;12.092;2023-01-28T07:03:29;96800.50;;;0.50;82.40
16094;BME280;8151;47.824;12.092;2023-01-28T07:05:59;96808.13;;;0.53;82.44
16094;BME280;8151;47.824;12.092;2023-01-28T07:08:28;96810.75;;;0.53;82.34
16094;BME280;8151;47.824;12.092;2023-01-28T07:10:56;96810.75;;;0.53;82.46
16094;BME280;8151;47.824;12.092;2023-01-28T07:13:25;96816.69;;;0.55;82.72
16094;BME280;8151;47.824;12.092;2023-01-28T07:15:55;96814.91;;;0.56;82.42
16094;BME280;8151;47.824;12.092;2023-01-28T07:18:23;96820.03;;;0.57;82.62
16094;BME280;8151;47.824;12.092;2023-01-28T07:20:52;96820.03;;;0.57;82.42
16094;BME280;8151;47.824;12.092;2023-01-28T07:23:22;96817.63;;;0.54;82.50
16094;BME280;8151;47.824;12.092;2023-01-28T07:25:50;96818.66;;;0.52;82.52
16094;BME280;8151;47.824;12.092;2023-01-28T07:28:19;96816.13;;;0.50;82.86
16094;BME280;8151;47.824;12.092;2023-01-28T07:30:49;96819.78;;;0.48;83.01
16094;BME280;8151;47.824;12.092;2023-01-28T07:33:21;96831.88;;;0.49;82.84
16094;BME280;8151;47.824;12.092;2023-01-28T07:35:49;96835.31;;;0.49;82.51
16094;BME280;8151;47.824;12.092;2023-01-28T07:38:18;96833.44;;;0.51;82.66
16094;BME280;8151;47.824;12.092;2023-01-28T07:40:46;96833.34;;;0.53;82.59
16094;BME280;8151;47.824;12.092;2023-01-28T07:43:15;96839.28;;;0.55;82.57
16094;BME280;8151;47.824;12.092;2023-01-28T07:45:45;96835.00;;;0.54;82.34
16094;BME280;8151;47.824;12.092;2023-01-28T07:48:14;96839.47;;;0.52;83.00
16094;BME280;8151;47.824;12.092;2023-01-28T07:50:44;96850.53;;;0.55;82.74
16094;BME280;8151;47.824;12.092;2023-01-28T07:53:14;96851.28;;;0.57;82.94
16094;BME280;8151;47.824;12.092;2023-01-28T07:55:43;96851.09;;;0.61;82.75
16094;BME280;8151;47.824;12.092;2023-01-28T07:58:12;96851.63;;;0.66;82.76
16094;BME280;8151;47.824;12.092;2023-01-28T08:00:40;96853.31;;;0.67;82.44
16094;BME280;8151;47.824;12.092;2023-01-28T08:03:12;96861.06;;;0.68;82.86
16094;BME280;8151;47.824;12.092;2023-01-28T08:05:45;96859.19;;;0.70;82.67
16094;BME280;8151;47.824;12.092;2023-01-28T08:08:14;96856.66;;;0.69;82.71
16094;BME280;8151;47.824;12.092;2023-01-28T08:10:43;96863.34;;;0.73;82.67
16094;BME280;8151;47.824;12.092;2023-01-28T08:13:14;96871.09;;;0.74;82.58
16094;BME280;8151;47.824;12.092;2023-01-28T08:15:43;96878.81;;;0.76;82.92
16094;BME280;8151;47.824;12.092;2023-01-28T08:18:13;96877.69;;;0.80;83.11
16094;BME280;8151;47.824;12.092;2023-01-28T08:20:42;96876.72;;;0.81;82.71
16094;BME280;8151;47.824;12.092;2023-01-28T08:23:15;96881.94;;;0.81;82.69
16094;BME280;8151;47.824;12.092;2023-01-28T08:25:44;96878.59;;;0.79;83.26
16094;BME280;8151;47.824;12.092;2023-01-28T08:28:15;96883.72;;;0.81;82.86
16094;BME280;8151;47.824;12.092;2023-01-28T08:30:44;96887.91;;;0.83;82.98
16094;BME280;8151;47.824;12.092;2023-01-28T08:33:14;96891.53;;;0.81;82.79
16094;BME280;8151;47.824;12.092;2023-01-28T08:35:44;96889.09;;;0.77;83.11
16094;BME280;8151;47.824;12.092;2023-01-28T08:38:14;96891.84;;;0.76;83.41
16094;BME280;8151;47.824;12.092;2023-01-28T08:40:43;96907.16;;;0.81;83.30
16094;BME280;8151;47.824;12.092;2023-01-28T08:43:12;96907.81;;;0.84;83.09
16094;BME280;8151;47.824;12.092;2023-01-28T08:45:41;96899.06;;;0.85;83.32
16094;BME280;8151;47.824;12.092;2023-01-28T08:48:11;96898.88;;;0.88;83.08
16094;BME280;8151;47.824;12.092;2023-01-28T08:50:42;96900.44;;;0.91;83.01
16094;BME280;8151;47.824;12.092;2023-01-28T08:53:12;96906.31;;;0.94;83.24
16094;BME280;8151;47.824;12.092;2023-01-28T08:55:42;96907.03;;;0.96;82.88
16094;BME280;8151;47.824;12.092;2023-01-28T08:58:13;96901.19;;;0.93;83.12
16094;BME280;8151;47.824;12.092;2023-01-28T09:00:43;96905.66;;;0.91;83.07
16094;BME280;8151;47.824;12.092;2023-01-28T09:03:12;96900.34;;;0.92;83.19
16094;BME280;8151;47.824;12.092;2023-01-28T09:05:40;96904.53;;;0.95;83.15
16094;BME280;8151;47.824;12.092;2023-01-28T09:08:10;96900.81;;;0.99;82.83
16094;BME280;8151;47.824;12.092;2023-01-28T09:10:39;96903.13;;;1.04;82.84
16094;BME280;8151;47.824;12.092;2023-01-28T09:13:11;96905.44;;;1.08;82.77
16094;BME280;8151;47.824;12.092;2023-01-28T09:15:41;96900.88;;;1.12;82.63
16094;BME280;8151;47.824;12.092;2023-01-28T09:18:10;96913.38;;;1.07;82.62
16094;BME280;8151;47.824;12.092;2023-01-28T09:20:38;96913.00;;;0.98;82.91
16094;BME280;8151;47.824;12.092;2023-01-28T09:23:08;96914.34;;;0.91;83.11
16094;BME280;8151;47.824;12.092;2023-01-28T09:25:37;96913.28;;;0.94;83.02
16094;BME280;8151;47.824;12.092;2023-01-28T09:28:06;96915.59;;;0.98;82.71
16094;BME280;8151;47.824;12.092;2023-01-28T09:30:36;96919.50;;;1.06;82.86
16094;BME280;8151;47.824;12.092;2023-01-28T09:33:05;96913.16;;;1.10;82.66
16094;BME280;8151;47.824;12.092;2023-01-28T09:35:34;96915.59;;;1.13;82.72
16094;BME280;8151;47.824;12.092;2023-01-28T09:38:03;96918.56;;;1.21;82.28
16094;BME280;8151;47.824;12.092;2023-01-28T09:40:34;96912.28;;;1.24;82.56
16094;BME280;8151;47.824;12.092;2023-01-28T09:43:34;96918.91;;;1.29;82.49
16094;BME280;8151;47.824;12.092;2023-01-28T09:46:11;96924.91;;;1.44;82.17
16094;BME280;8151;47.824;12.092;2023-01-28T09:48:43;96918.81;;;1.58;81.86
16094;BME280;8151;47.824;12.092;2023-01-28T09:51:23;96916.75;;;1.63;81.84
16094;BME280;8151;47.824;12.092;2023-01-28T09:53:58;96910.50;;;1.66;81.98
16094;BME280;8151;47.824;12.092;2023-01-28T09:56:30;96916.75;;;1.63;81.90
16094;BME280;8151;47.824;12.092;2023-01-28T09:59:16;96911.53;;;1.63;82.23
16094;BME280;8151;47.824;12.092;2023-01-28T10:01:53;96921.66;;;1.68;82.16
16094;BME280;8151;47.824;12.092;2023-01-28T10:04:34;96914.47;;;1.71;82.24
16094;BME280;8151;47.824;12.092;2023-01-28T10:07:15;96917.41;;;1.80;82.05
16094;BME280;8151;47.824;12.092;2023-01-28T10:09:49;96914.63;;;1.83;81.90
16094;BME280;8151;47.824;12.092;2023-01-28T10:12:52;96906.56;;;1.86;82.00
16094;BME280;8151;47.824;12.092;2023-01-28T10:15:45;96902.63;;;1.93;81.88
16094;BME280;8151;47.824;12.092;2023-01-28T10:18:20;96897.44;;;2.06;81.76
16094;BME280;8151;47.824;12.092;2023-01-28T10:20:54;96892.44;;;2.15;81.78
16094;BME280;8151;47.824;12.092;2023-01-28T10:23:28;96897.16;;;2.23;81.97
16094;BME280;8151;47.824;12.092;2023-01-28T10:26:04;96888.47;;;2.23;81.91
16094;BME280;8151;47.824;12.092;2023-01-28T10:28:38;96889.41;;;2.22;82.16
16094;BME280;8151;47.824;12.092;2023-01-28T10:31:11;96881.59;;;2.22;82.52
16094;BME280;8151;47.824;12.092;2023-01-28T10:33:41;96889.31;;;2.23;82.67
16094;BME280;8151;47.824;12.092;2023-01-28T10:36:10;96891.59;;;2.28;82.87
16094;BME280;8151;47.824;12.092;2023-01-28T10:38:38;96887.31;;;2.40;82.95
16094;BME280;8151;47.824;12.092;2023-01-28T10:41:20;96881.56;;;2.47;82.57
16094;BME280;8151;47.824;12.092;2023-01-28T10:43:51;96885.34;;;2.56;82.79
16094;BME280;8151;47.824;12.092;2023-01-28T10:46:23;96881.44;;;2.62;82.66
16094;BME280;8151;47.824;12.092;2023-01-28T10:48:58;96887.09;;;2.68;82.70
16094;BME280;8151;47.824;12.092;2023-01-28T10:51:34;96876.53;;;2.70;82.86
16094;BME280;8151;47.824;12.092;2023-01-28T10:54:18;96879.34;;;2.80;82.76
16094;BME280;8151;47.824;12.092;2023-01-28T10:56:50;96880.38;;;2.90;82.72
16094;BME280;8151;47.824;12.092;2023-01-28T10:59:24;96876.16;;;3.00;82.44
16094;BME280;8151;47.824;12.092;2023-01-28T11:01:55;96872.69;;;3.12;82.29
16094;BME280;8151;47.824;12.092;2023-01-28T11:04:27;96869.09;;;3.26;82.03
16094;BME280;8151;47.824;12.092;2023-01-28T11:06:59;96868.13;;;3.27;82.16
16094;BME280;8151;47.824;12.092;2023-01-28T11:09:29;96862.47;;;3.33;82.00
16094;BME280;8151;47.824;12.092;2023-01-28T11:11:58;96868.47;;;3.47;82.24
16094;BME280;8151;47.824;12.092;2023-01-28T11:14:37;96868.91;;;3.65;81.93
16094;BME280;8151;47.824;12.092;2023-01-28T11:17:15;96875.03;;;3.77;81.65
16094;BME280;8151;47.824;12.092;2023-01-28T11:19:46;96865.03;;;3.82;81.55
16094;BME280;8151;47.824;12.092;2023-01-28T11:22:22;96862.31;;;3.83;81.71
16094;BME280;8151;47.824;12.092;2023-01-28T11:24:51;96863.38;;;3.81;81.61
16094;BME280;8151;47.824;12.092;2023-01-28T11:27:26;96867.66;;;3.82;81.88
16094;BME280;8151;47.824;12.092;2023-01-28T11:29:57;96880.88;;;3.80;81.84
16094;BME280;8151;47.824;12.092;2023-01-28T11:32:29;96876.47;;;3.81;82.19
16094;BME280;8151;47.824;12.092;2023-01-28T11:34:59;96874.78;;;3.80;81.90
16094;BME280;8151;47.824;12.092;2023-01-28T11:37:28;96881.44;;;3.72;81.39
16094;BME280;8151;47.824;12.092;2023-01-28T11:40:01;96882.00;;;3.65;81.96
16094;BME280;8151;47.824;12.092;2023-01-28T11:42:29;96875.19;;;3.62;81.63
16094;BME280;8151;47.824;12.092;2023-01-28T11:44:58;96880.88;;;3.56;81.40
16094;BME280;8151;47.824;12.092;2023-01-28T11:47:37;96876.09;;;3.50;81.32
16094;BME280;8151;47.824;12.092;2023-01-28T11:50:23;96881.53;;;3.47;81.18
16094;BME280;8151;47.824;12.092;2023-01-28T11:53:06;96882.81;;;3.41;81.08
16094;BME280;8151;47.824;12.092;2023-01-28T11:55:54;96878.53;;;3.40;80.69
16094;BME280;8151;47.824;12.092;2023-01-28T11:58:35;96881.25;;;3.39;80.79
16094;BME280;8151;47.824;12.092;2023-01-28T12:01:12;96880.03;;;3.31;80.68
16094;BME280;8151;47.824;12.092;2023-01-28T12:04:06;96886.44;;;3.27;80.56
16094;BME280;8151;47.824;12.092;2023-01-28T12:06:51;96879.03;;;3.21;80.42
16094;BME280;8151;47.824;12.092;2023-01-28T12:09:29;96876.66;;;3.18;80.44
16094;BME280;8151;47.824;12.092;2023-01-28T12:12:12;96882.19;;;3.13;80.26
16094;BME280;8151;47.824;12.092;2023-01-28T12:15:04;96881.06;;;3.05;80.14
16094;BME280;8151;47.824;12.092;2023-01-28T12:17:44;96875.53;;;2.96;80.15
16094;BME280;8151;47.824;12.092;2023-01-28T12:20:20;96880.91;;;2.95;79.85
16094;BME280;8151;47.824;12.092;2023-01-28T12:23:09;96879.53;;;2.89;79.94
16094;BME280;8151;47.824;12.092;2023-01-28T12:25:52;96885.06;;;2.85;79.69
16094;BME280;8151;47.824;12.092;2023-01-28T12:28:37;96884.69;;;2.78;79.71
16094;BME280;8151;47.824;12.092;2023-01-28T12:31:36;96885.00;;;2.73;79.68
16094;BME280;8151;47.824;12.092;2023-01-28T12:34:41;96887.94;;;2.69;79.55
16094;BME280;8151;47.824;12.092;2023-01-28T12:37:19;96885.53;;;2.66;79.61
16094;BME280;8151;47.824;12.092;2023-01-28T12:42:47;96885.34;;;2.56;79.31
16094;BME280;8151;47.824;12.092;2023-01-28T12:45:20;96888.47;;;2.48;79.49
16094;BME280;8151;47.824;12.092;2023-01-28T12:47:54;96893.28;;;2.42;79.52
16094;BME280;8151;47.824;12.092;2023-01-28T12:50:26;96892.34;;;2.43;79.52
16094;BME280;8151;47.824;12.092;2023-01-28T12:53:00;96891.72;;;2.39;79.45
16094;BME280;8151;47.824;12.092;2023-01-28T12:55:38;96893.69;;;2.35;79.28
16094;BME280;8151;47.824;12.092;2023-01-28T12:58:16;96896.63;;;2.31;78.94
16094;BME280;8151;47.824;12.092;2023-01-28T13:00:49;96897.75;;;2.27;79.09
16094;BME280;8151;47.824;12.092;2023-01-28T13:03:23;96900.50;;;2.25;79.23
16094;BME280;8151;47.824;12.092;2023-01-28T13:05:58;96903.63;;;2.17;79.05
16094;BME280;8151;47.824;12.092;2023-01-28T13:08:29;96904.53;;;2.16;79.08
16094;BME280;8151;47.824;12.092;2023-01-28T13:11:00;96902.88;;;2.15;79.12
16094;BME280;8151;47.824;12.092;2023-01-28T13:13:31;96908.19;;;2.14;79.00
16094;BME280;8151;47.824;12.092;2023-01-28T13:16:02;96905.78;;;2.11;78.92
16094;BME280;8151;47.824;12.092;2023-01-28T13:18:42;96903.06;;;2.12;78.94
16094;BME280;8151;47.824;12.092;2023-01-28T13:21:27;96911.53;;;2.16;78.63
16094;BME280;8151;47.824;12.092;2023-01-28T13:24:16;96913.31;;;2.15;78.84
16094;BME280;8151;47.824;12.092;2023-01-28T13:26:49;96911.53;;;2.16;78.64
16094;BME280;8151;47.824;12.092;2023-01-28T13:29:30;96913.41;;;2.14;78.52
16094;BME280;8151;47.824;12.092;2023-01-28T13:32:00;96915.94;;;2.15;78.60
16094;BME280;8151;47.824;12.092;2023-01-28T13:34:33;96914.97;;;2.16;78.67
16094;BME280;8151;47.824;12.092;2023-01-28T13:37:06;96919.38;;;2.16;78.62
16094;BME280;8151;47.824;12.092;2023-01-28T13:39:47;96916.75;;;2.16;78.71
16094;BME280;8151;47.824;12.092;2023-01-28T13:42:26;96919.38;;;2.16;78.70